nws-alerts: Checking more than four warning/county codes can delay the loading of your pages. You should use a cron job to get the data.
EllijayWeather Station Historical Data
Daily Summary for August 17, 2018 Units:  English    Metric   Both
Daily Weekly Monthly Yearly Custom
  High: Low: Average:
Temperature: 83.8 °F 70.5 °F 75.3 °F
Dew Point: 75 °F 68.9 °F 71.7 °F
Humidity: 95% 71% 89%
Wind Speed: 2.9mph 0mph 0.1mph
Wind Gust: 8mph - -
Wind- - SSW
Pressure: 30.18 in 30.05 in -
Precipitation: 0.11 in    
Historical Graphs
 
 
Tabular Data for August 17, 2018
Time Temperature Dew Point Pressure Wind Wind Speed Wind Gust Humidity Rainfall Rate (Hourly) solar
00:04 72.1 °F 70.3 °F 30.17 in Calm     94% 0 in meteobridge W/m2
00:09 72.1 °F 70.3 °F 30.18 in Calm     94% 0 in meteobridge W/m2
00:14 72 °F 70.2 °F 30.17 in Calm     94% 0 in meteobridge W/m2
00:19 72 °F 70.2 °F 30.18 in Calm     94% 0 in meteobridge W/m2
00:24 72 °F 70.2 °F 30.18 in Calm     94% 0 in meteobridge W/m2
00:29 72 °F 70.2 °F 30.17 in Calm     94% 0 in meteobridge W/m2
00:34 71.8 °F 70 °F 30.18 in Calm     94% 0 in meteobridge W/m2
00:39 71.8 °F 70 °F 30.18 in Calm     94% 0 in meteobridge W/m2
00:44 71.8 °F 70 °F 30.18 in Calm     94% 0 in meteobridge W/m2
00:49 71.6 °F 69.8 °F 30.18 in Calm     94% 0 in meteobridge W/m2
00:54 71.6 °F 69.8 °F 30.18 in Calm     94% 0 in meteobridge W/m2
00:59 71.4 °F 69.6 °F 30.17 in Calm     94% 0 in meteobridge W/m2
01:04 71.4 °F 69.6 °F 30.17 in Calm     94% 0 in meteobridge W/m2
01:09 71.4 °F 69.6 °F 30.17 in Calm     94% 0 in meteobridge W/m2
01:14 71.4 °F 69.6 °F 30.17 in Calm     94% 0 in meteobridge W/m2
01:19 71.4 °F 69.6 °F 30.17 in Calm     94% 0 in meteobridge W/m2
01:24 71.2 °F 69.4 °F 30.17 in Calm     94% 0 in meteobridge W/m2
01:29 71.2 °F 69.4 °F 30.17 in Calm     94% 0 in meteobridge W/m2
01:34 71.2 °F 69.4 °F 30.17 in Calm     94% 0 in meteobridge W/m2
01:39 71.2 °F 69.4 °F 30.16 in Calm     94% 0 in meteobridge W/m2
01:44 71.2 °F 69.4 °F 30.16 in Calm     94% 0 in meteobridge W/m2
01:49 71.2 °F 69.4 °F 30.16 in Calm     94% 0 in meteobridge W/m2
01:54 71.2 °F 69.8 °F 30.16 in Calm     95% 0 in meteobridge W/m2
01:59 71.2 °F 69.8 °F 30.16 in Calm     95% 0 in meteobridge W/m2
02:04 71.1 °F 69.3 °F 30.16 in Calm     94% 0 in meteobridge W/m2
02:09 71.1 °F 69.3 °F 30.15 in Calm     94% 0 in meteobridge W/m2
02:14 71.1 °F 69.6 °F 30.15 in Calm     95% 0 in meteobridge W/m2
02:19 70.9 °F 69.4 °F 30.15 in Calm     95% 0 in meteobridge W/m2
02:24 70.9 °F 69.4 °F 30.15 in Calm     95% 0 in meteobridge W/m2
02:29 70.7 °F 69.3 °F 30.15 in Calm     95% 0 in meteobridge W/m2
02:34 70.7 °F 68.9 °F 30.14 in Calm     94% 0 in meteobridge W/m2
02:39 70.7 °F 68.9 °F 30.14 in Calm     94% 0 in meteobridge W/m2
02:44 70.7 °F 69.3 °F 30.14 in Calm     95% 0 in meteobridge W/m2
02:49 70.7 °F 69.3 °F 30.14 in Calm     95% 0 in meteobridge W/m2
02:54 70.7 °F 69.3 °F 30.14 in Calm     95% 0 in meteobridge W/m2
02:59 70.7 °F 69.3 °F 30.13 in Calm     95% 0 in meteobridge W/m2
03:04 70.5 °F 69.1 °F 30.13 in Calm     95% 0 in meteobridge W/m2
03:09 70.5 °F 69.1 °F 30.13 in Calm     95% 0 in meteobridge W/m2
03:14 70.5 °F 69.1 °F 30.13 in Calm     95% 0 in meteobridge W/m2
03:19 70.5 °F 69.1 °F 30.13 in Calm     95% 0 in meteobridge W/m2
03:24 70.5 °F 69.1 °F 30.14 in Calm     95% 0 in meteobridge W/m2
03:29 70.5 °F 69.1 °F 30.13 in Calm     95% 0 in meteobridge W/m2
03:34 70.5 °F 69.1 °F 30.14 in Calm     95% 0 in meteobridge W/m2
03:39 70.7 °F 69.3 °F 30.14 in Calm     95% 0 in meteobridge W/m2
03:44 70.7 °F 69.3 °F 30.14 in Calm     95% 0 in meteobridge W/m2
03:49 70.7 °F 69.3 °F 30.14 in Calm     95% 0 in meteobridge W/m2
03:54 70.7 °F 69.3 °F 30.14 in Calm     95% 0 in meteobridge W/m2
03:59 70.7 °F 69.3 °F 30.14 in Calm     95% 0 in meteobridge W/m2
04:04 70.7 °F 69.3 °F 30.14 in Calm     95% 0 in meteobridge W/m2
04:09 70.7 °F 69.3 °F 30.14 in Calm     95% 0 in meteobridge W/m2
04:14 70.7 °F 69.3 °F 30.15 in Calm     95% 0 in meteobridge W/m2
04:19 70.9 °F 69.4 °F 30.15 in Calm     95% 0 in meteobridge W/m2
04:24 70.9 °F 69.4 °F 30.14 in Calm     95% 0 in meteobridge W/m2
04:29 70.9 °F 69.4 °F 30.14 in Calm     95% 0 in meteobridge W/m2
04:34 70.9 °F 69.4 °F 30.14 in Calm     95% 0 in meteobridge W/m2
04:39 70.9 °F 69.4 °F 30.15 in Calm     95% 0 in meteobridge W/m2
04:44 70.9 °F 69.4 °F 30.15 in Calm     95% 0 in meteobridge W/m2
04:49 70.9 °F 69.4 °F 30.15 in Calm     95% 0 in meteobridge W/m2
04:54 70.9 °F 69.4 °F 30.15 in Calm     95% 0 in meteobridge W/m2
04:59 70.9 °F 69.4 °F 30.15 in Calm     95% 0 in meteobridge W/m2
05:04 71.1 °F 69.6 °F 30.15 in Calm     95% 0 in meteobridge W/m2
05:09 71.1 °F 69.6 °F 30.15 in Calm     95% 0 in meteobridge W/m2
05:14 71.1 °F 69.6 °F 30.15 in Calm     95% 0 in meteobridge W/m2
05:19 71.1 °F 69.6 °F 30.15 in Calm     95% 0 in meteobridge W/m2
05:24 71.1 °F 69.6 °F 30.15 in Calm     95% 0 in meteobridge W/m2
05:29 71.1 °F 69.6 °F 30.15 in Calm     95% 0 in meteobridge W/m2
05:34 71.1 °F 69.6 °F 30.15 in Calm     95% 0 in meteobridge W/m2
05:39 71.1 °F 69.6 °F 30.15 in Calm     95% 0 in meteobridge W/m2
05:44 71.2 °F 69.8 °F 30.16 in Calm     95% 0 in meteobridge W/m2
05:48 71.2 °F 69.8 °F 30.16 in Calm     95% 0 in meteobridge W/m2
05:54 71.2 °F 69.8 °F 30.16 in Calm     95% 0 in meteobridge W/m2
05:59 71.2 °F 69.8 °F 30.16 in Calm     95% 0 in meteobridge W/m2
06:04 71.2 °F 69.8 °F 30.16 in Calm     95% 0 in meteobridge W/m2
06:09 71.2 °F 69.8 °F 30.16 in Calm     95% 0 in meteobridge W/m2
06:14 71.4 °F 70 °F 30.16 in Calm     95% 0 in meteobridge W/m2
06:19 71.4 °F 70 °F 30.16 in Calm     95% 0 in meteobridge W/m2
06:24 71.4 °F 70 °F 30.16 in Calm     95% 0 in meteobridge W/m2
06:29 71.4 °F 70 °F 30.16 in Calm     95% 0 in meteobridge W/m2
06:34 71.4 °F 70 °F 30.16 in Calm     95% 0 in meteobridge W/m2
06:39 71.4 °F 70 °F 30.16 in Calm     95% 0 in meteobridge W/m2
06:44 71.6 °F 70.2 °F 30.17 in Calm     95% 0 in meteobridge W/m2
06:49 71.6 °F 70.2 °F 30.17 in Calm     95% 0 in meteobridge W/m2
06:54 71.8 °F 70.3 °F 30.17 in Calm     95% 0 in meteobridge W/m2
06:59 72 °F 70.5 °F 30.17 in Calm     95% 0 in meteobridge W/m2
07:04 72 °F 70.5 °F 30.17 in Calm     95% 0 in meteobridge W/m2
07:09 71.8 °F 70.3 °F 30.17 in Calm     95% 0 in meteobridge W/m2
07:14 72 °F 70.5 °F 30.17 in Calm     95% 0 in meteobridge W/m2
07:19 72 °F 70.5 °F 30.17 in Calm     95% 0 in meteobridge W/m2
07:24 72 °F 70.5 °F 30.17 in Calm     95% 0 in meteobridge W/m2
07:29 72.1 °F 70.7 °F 30.17 in Calm     95% 0 in meteobridge W/m2
07:34 72.1 °F 70.7 °F 30.18 in Calm     95% 0 in meteobridge W/m2
07:39 72.1 °F 70.7 °F 30.18 in Calm     95% 0 in meteobridge W/m2
07:44 72.1 °F 70.7 °F 30.17 in Calm   1 mph 95% 0 in meteobridge W/m2
07:49 72.1 °F 70.7 °F 30.17 in Calm     95% 0 in meteobridge W/m2
07:54 72.1 °F 70.7 °F 30.18 in NNW 0.9 mph 1 mph 95% 0 in meteobridge W/m2
07:59 72.3 °F 70.9 °F 30.18 in Calm     95% 0 in meteobridge W/m2
08:04 72.3 °F 70.9 °F 30.17 in Calm     95% 0 in meteobridge W/m2
08:09 72.3 °F 70.9 °F 30.18 in Calm     95% 0 in meteobridge W/m2
08:14 72.3 °F 70.9 °F 30.18 in Calm     95% 0 in meteobridge W/m2
08:19 72.3 °F 70.9 °F 30.18 in Calm     95% 0 in meteobridge W/m2
08:24 72.3 °F 70.9 °F 30.18 in Calm     95% 0 in meteobridge W/m2
08:29 72.3 °F 70.9 °F 30.18 in Calm     95% 0 in meteobridge W/m2
08:34 72.5 °F 71.1 °F 30.18 in Calm     95% 0 in meteobridge W/m2
08:39 72.5 °F 71.1 °F 30.18 in Calm     95% 0 in meteobridge W/m2
08:44 72.5 °F 71.1 °F 30.18 in Calm     95% 0 in meteobridge W/m2
08:49 72.5 °F 71.1 °F 30.18 in Calm     95% 0 in meteobridge W/m2
08:54 72.5 °F 70.7 °F 30.18 in Calm     94% 0 in meteobridge W/m2
08:59 72.7 °F 70.9 °F 30.18 in Calm     94% 0 in meteobridge W/m2
09:04 72.7 °F 70.9 °F 30.18 in Calm   1 mph 94% 0 in meteobridge W/m2
09:09 72.7 °F 70.9 °F 30.18 in Calm     94% 0 in meteobridge W/m2
09:14 72.7 °F 70.9 °F 30.18 in Calm     94% 0 in meteobridge W/m2
09:19 72.9 °F 71.1 °F 30.18 in Calm     94% 0 in meteobridge W/m2
09:24 73 °F 71.2 °F 30.18 in Calm     94% 0 in meteobridge W/m2
09:29 73 °F 71.2 °F 30.18 in Calm     94% 0 in meteobridge W/m2
09:34 73 °F 71.2 °F 30.17 in Calm   2 mph 94% 0 in meteobridge W/m2
09:39 73.2 °F 71.4 °F 30.17 in Calm     94% 0 in meteobridge W/m2
09:44 73.2 °F 71.4 °F 30.17 in Calm   1 mph 94% 0 in meteobridge W/m2
09:49 73.2 °F 71.4 °F 30.17 in Calm     94% 0 in meteobridge W/m2
09:54 73.2 °F 71.4 °F 30.17 in Calm     94% 0 in meteobridge W/m2
09:59 73.2 °F 71.1 °F 30.17 in Calm     93% 0 in meteobridge W/m2
10:04 73.2 °F 71.1 °F 30.17 in Calm     93% 0 in meteobridge W/m2
10:09 73.4 °F 71.6 °F 30.17 in Calm     94% 0 in meteobridge W/m2
10:14 73.4 °F 71.2 °F 30.17 in Calm     93% 0 in meteobridge W/m2
10:19 73.6 °F 71.8 °F 30.17 in Calm     94% 0 in meteobridge W/m2
10:24 73.6 °F 71.8 °F 30.17 in Calm     94% 0 in meteobridge W/m2
10:29 73.8 °F 72 °F 30.17 in Calm     94% 0 in meteobridge W/m2
10:34 73.8 °F 71.6 °F 30.17 in Calm     93% 0 in meteobridge W/m2
10:39 73.8 °F 71.6 °F 30.17 in Calm     93% 0 in meteobridge W/m2
10:44 73.9 °F 71.8 °F 30.17 in Calm     93% 0 in meteobridge W/m2
10:49 73.9 °F 71.8 °F 30.17 in Calm     93% 0 in meteobridge W/m2
10:54 73.9 °F 71.8 °F 30.17 in Calm     93% 0 in meteobridge W/m2
10:59 73.9 °F 71.8 °F 30.17 in Calm     93% 0 in meteobridge W/m2
11:04 74.1 °F 72 °F 30.17 in Calm     93% 0 in meteobridge W/m2
11:09 74.1 °F 72 °F 30.17 in Calm     93% 0 in meteobridge W/m2
11:14 74.3 °F 72.1 °F 30.17 in Calm     93% 0 in meteobridge W/m2
11:19 74.5 °F 72.3 °F 30.17 in Calm   1 mph 93% 0 in meteobridge W/m2
11:24 74.5 °F 72.3 °F 30.17 in Calm     93% 0 in meteobridge W/m2
11:29 74.7 °F 72.5 °F 30.17 in Calm     93% 0 in meteobridge W/m2
11:34 74.7 °F 72.1 °F 30.17 in Calm     92% 0 in meteobridge W/m2
11:39 74.8 °F 72.3 °F 30.17 in Calm     92% 0 in meteobridge W/m2
11:44 75 °F 72.5 °F 30.17 in Calm     92% 0 in meteobridge W/m2
11:49 75 °F 72.5 °F 30.17 in Calm     92% 0 in meteobridge W/m2
11:53 75.4 °F 72.5 °F 30.17 in Calm     91% 0 in meteobridge W/m2
11:59 75.6 °F 72.7 °F 30.16 in Calm     91% 0 in meteobridge W/m2
12:04 75.9 °F 73 °F 30.16 in Calm     91% 0 in meteobridge W/m2
12:09 76.3 °F 73 °F 30.16 in Calm   3 mph 90% 0 in meteobridge W/m2
12:14 76.5 °F 73.2 °F 30.16 in Calm     90% 0 in meteobridge W/m2
12:19 76.8 °F 73.4 °F 30.16 in Calm     89% 0 in meteobridge W/m2
12:24 77.2 °F 73.8 °F 30.16 in Calm   1 mph 89% 0 in meteobridge W/m2
12:29 77.9 °F 74.1 °F 30.16 in Calm     88% 0 in meteobridge W/m2
12:34 78.1 °F 73.6 °F 30.16 in Calm     86% 0 in meteobridge W/m2
12:39 78.1 °F 73.6 °F 30.16 in Calm   1 mph 86% 0 in meteobridge W/m2
12:44 78.3 °F 73.8 °F 30.16 in Calm     86% 0 in meteobridge W/m2
12:49 78.4 °F 73.6 °F 30.16 in Calm   1 mph 85% 0 in meteobridge W/m2
12:54 78.8 °F 73.6 °F 30.16 in NW 0.9 mph 4 mph 84% 0 in meteobridge W/m2
12:59 79.2 °F 73.9 °F 30.16 in Calm     84% 0 in meteobridge W/m2
13:04 79.2 °F 73.9 °F 30.15 in Calm     84% 0 in meteobridge W/m2
13:09 79.2 °F 73.9 °F 30.15 in NNE 0.9 mph 3 mph 84% 0 in meteobridge W/m2
13:14 79.3 °F 73.8 °F 30.15 in NW 2.9 mph 3 mph 83% 0 in meteobridge W/m2
13:19 79.3 °F 73.8 °F 30.14 in North 0.9 mph 1 mph 83% 0 in meteobridge W/m2
13:24 79.3 °F 73.4 °F 30.14 in Calm     82% 0 in meteobridge W/m2
13:29 79.9 °F 74.3 °F 30.14 in NNW 2.9 mph 3 mph 83% 0 in meteobridge W/m2
13:34 80.2 °F 74.3 °F 30.14 in NW 2 mph 2 mph 82% 0 in meteobridge W/m2
13:39 80.2 °F 74.3 °F 30.15 in Calm   1 mph 82% 0 in meteobridge W/m2
13:44 80.1 °F 74.1 °F 30.14 in Calm   1 mph 82% 0 in meteobridge W/m2
13:49 80.4 °F 73.8 °F 30.14 in Calm   2 mph 80% 0 in meteobridge W/m2
13:54 80.8 °F 73.6 °F 30.14 in Calm   1 mph 79% 0 in meteobridge W/m2
13:59 81.3 °F 73.8 °F 30.14 in NW 0.9 mph 4 mph 78% 0 in meteobridge W/m2
14:04 82 °F 74.1 °F 30.13 in Calm   5 mph 77% 0 in meteobridge W/m2
14:09 82.2 °F 73.6 °F 30.13 in Calm   3 mph 75% 0 in meteobridge W/m2
14:14 82.4 °F 74.8 °F 30.13 in Calm     78% 0 in meteobridge W/m2
14:19 82.4 °F 73.2 °F 30.13 in NNW 2 mph 3 mph 74% 0 in meteobridge W/m2
14:24 82.6 °F 73.4 °F 30.12 in Calm   1 mph 74% 0 in meteobridge W/m2
14:29 82.6 °F 73.8 °F 30.12 in Calm   4 mph 75% 0 in meteobridge W/m2
14:34 82.8 °F 73.9 °F 30.11 in Calm     75% 0 in meteobridge W/m2
14:39 82.9 °F 73.8 °F 30.11 in Calm   2 mph 74% 0 in meteobridge W/m2
14:44 83.1 °F 73.2 °F 30.11 in Calm     72% 0 in meteobridge W/m2
14:49 82.9 °F 73 °F 30.11 in Calm   1 mph 72% 0 in meteobridge W/m2
14:54 82.8 °F 73.6 °F 30.11 in Calm   1 mph 74% 0 in meteobridge W/m2
14:59 82.8 °F 73.6 °F 30.10 in Calm   1 mph 74% 0 in meteobridge W/m2
15:04 82.6 °F 73.4 °F 30.10 in Calm   1 mph 74% 0 in meteobridge W/m2
15:09 82.6 °F 73.4 °F 30.10 in Calm     74% 0 in meteobridge W/m2
15:14 82.6 °F 73.8 °F 30.10 in Calm   2 mph 75% 0 in meteobridge W/m2
15:19 82.8 °F 73.9 °F 30.10 in Calm   2 mph 75% 0 in meteobridge W/m2
15:24 82.9 °F 74.7 °F 30.10 in Calm     76% 0 in meteobridge W/m2
15:29 82.9 °F 73 °F 30.10 in Calm   2 mph 72% 0 in meteobridge W/m2
15:34 83.1 °F 73.6 °F 30.09 in Calm     73% 0 in meteobridge W/m2
15:39 83.1 °F 73.2 °F 30.09 in Calm   4 mph 72% 0 in meteobridge W/m2
15:44 83.1 °F 73.6 °F 30.09 in Calm   1 mph 73% 0 in meteobridge W/m2
15:49 83.5 °F 73.6 °F 30.09 in Calm     72% 0 in meteobridge W/m2
15:54 83.8 °F 74.3 °F 30.09 in Calm   1 mph 73% 0 in meteobridge W/m2
15:59 83.7 °F 73.6 °F 30.09 in Calm     72% 0 in meteobridge W/m2
16:04 83.5 °F 73 °F 30.09 in Calm     71% 0 in meteobridge W/m2
16:09 83.3 °F 73.4 °F 30.09 in Calm     72% 0 in meteobridge W/m2
16:14 83.5 °F 73.9 °F 30.08 in Calm   3 mph 73% 0 in meteobridge W/m2
16:19 83.5 °F 73.6 °F 30.08 in NE 0.9 mph 1 mph 72% 0 in meteobridge W/m2
16:24 83.5 °F 74.7 °F 30.08 in Calm   3 mph 75% 0 in meteobridge W/m2
16:29 83.3 °F 73.8 °F 30.07 in Calm     73% 0 in meteobridge W/m2
16:34 83.1 °F 73.9 °F 30.07 in Calm     74% 0 in meteobridge W/m2
16:39 82.8 °F 74.5 °F 30.07 in Calm     76% 0 in meteobridge W/m2
16:44 82.6 °F 74.7 °F 30.07 in Calm     77% 0 in meteobridge W/m2
16:49 82.6 °F 75 °F 30.07 in Calm   1 mph 78% 0 in meteobridge W/m2
16:54 82.2 °F 74.3 °F 30.07 in ESE 0.9 mph 2 mph 77% 0 in meteobridge W/m2
16:59 82 °F 74.1 °F 30.07 in Calm   1 mph 77% 0 in meteobridge W/m2
17:04 82 °F 74.5 °F 30.07 in Calm     78% 0 in meteobridge W/m2
17:09 82 °F 74.8 °F 30.06 in Calm     79% 0 in meteobridge W/m2
17:14 81.9 °F 74.3 °F 30.06 in Calm     78% 0 in meteobridge W/m2
17:19 81.9 °F 74.7 °F 30.06 in Calm     79% 0 in meteobridge W/m2
17:24 81.7 °F 74.8 °F 30.06 in Calm     80% 0 in meteobridge W/m2
17:29 81.7 °F 74.8 °F 30.06 in Calm     80% 0 in meteobridge W/m2
17:34 81.3 °F 74.5 °F 30.06 in ESE 0.9 mph 1 mph 80% 0 in meteobridge W/m2
17:39 81.3 °F 74.1 °F 30.06 in Calm     79% 0 in meteobridge W/m2
17:44 81.3 °F 74.1 °F 30.05 in Calm     79% 0 in meteobridge W/m2
17:49 81.3 °F 74.1 °F 30.06 in Calm     79% 0 in meteobridge W/m2
17:54 81.3 °F 74.5 °F 30.06 in Calm     80% 0 in meteobridge W/m2
17:59 81.3 °F 74.1 °F 30.06 in Calm     79% 0 in meteobridge W/m2
18:04 81.3 °F 74.5 °F 30.06 in Calm     80% 0 in meteobridge W/m2
18:09 81.1 °F 74.3 °F 30.06 in Calm     80% 0 in meteobridge W/m2
18:14 80.8 °F 74.5 °F 30.06 in Calm     81% 0 in meteobridge W/m2
18:19 80.6 °F 74.3 °F 30.07 in Calm     81% 0 in meteobridge W/m2
18:24 80.4 °F 74.5 °F 30.07 in Calm     82% 0 in meteobridge W/m2
18:29 80.2 °F 74.3 °F 30.06 in Calm     82% 0 in meteobridge W/m2
18:34 80.2 °F 74.3 °F 30.06 in Calm     82% 0 in meteobridge W/m2
18:39 80.1 °F 73.8 °F 30.06 in Calm     81% 0 in meteobridge W/m2
18:44 79.9 °F 73.6 °F 30.06 in Calm     81% 0 in meteobridge W/m2
18:49 79.9 °F 73.9 °F 30.06 in Calm     82% 0 in meteobridge W/m2
18:54 79.7 °F 74.1 °F 30.05 in Calm     83% 0 in meteobridge W/m2
18:59 79.5 °F 73.9 °F 30.05 in Calm     83% 0 in meteobridge W/m2
19:04 79.3 °F 74.1 °F 30.05 in Calm     84% 0 in meteobridge W/m2
19:09 79.3 °F 74.1 °F 30.05 in Calm     84% 0 in meteobridge W/m2
19:14 79.3 °F 74.1 °F 30.05 in Calm     84% 0 in meteobridge W/m2
19:19 79.2 °F 74.3 °F 30.05 in Calm     85% 0 in meteobridge W/m2
19:24 79.2 °F 74.3 °F 30.05 in Calm     85% 0 in meteobridge W/m2
19:29 79 °F 74.1 °F 30.05 in Calm     85% 0 in meteobridge W/m2
19:34 79 °F 74.5 °F 30.05 in Calm     86% 0 in meteobridge W/m2
19:39 79 °F 74.5 °F 30.05 in Calm     86% 0 in meteobridge W/m2
19:44 78.6 °F 74.1 °F 30.05 in Calm     86% 0 in meteobridge W/m2
19:49 78.4 °F 74.3 °F 30.06 in Calm     87% 0 in meteobridge W/m2
19:54 78.4 °F 73.9 °F 30.06 in Calm     86% 0 in meteobridge W/m2
19:59 78.3 °F 73.8 °F 30.07 in Calm     86% 0 in meteobridge W/m2
20:04 78.1 °F 73.6 °F 30.08 in Calm     86% 0 in meteobridge W/m2
20:09 77.9 °F 73.4 °F 30.08 in Calm     86% 0 in meteobridge W/m2
20:14 77.7 °F 73.2 °F 30.08 in Calm     86% 0 in meteobridge W/m2
20:19 77.5 °F 73 °F 30.08 in Calm     86% 0 in meteobridge W/m2
20:24 77.4 °F 73.2 °F 30.08 in Calm     87% 0 in meteobridge W/m2
20:29 77.2 °F 73 °F 30.09 in Calm     87% 0 in meteobridge W/m2
20:34 76.8 °F 72.7 °F 30.09 in Calm     87% 0 in meteobridge W/m2
20:39 76.6 °F 72.5 °F 30.09 in Calm     87% 0 in meteobridge W/m2
20:44 76.3 °F 72.5 °F 30.09 in Calm     88% 0 in meteobridge W/m2
20:49 76.1 °F 72.3 °F 30.09 in Calm     88% 0 in meteobridge W/m2
20:54 75.9 °F 72.5 °F 30.09 in Calm     89% 0 in meteobridge W/m2
20:59 75.6 °F 72.1 °F 30.09 in Calm     89% 0 in meteobridge W/m2
21:04 75.4 °F 72 °F 30.08 in Calm     89% 0 in meteobridge W/m2
21:09 75.2 °F 72.1 °F 30.09 in Calm     90% 0 in meteobridge W/m2
21:14 74.8 °F 71.8 °F 30.09 in Calm     90% 0 in meteobridge W/m2
21:19 74.7 °F 71.6 °F 30.09 in Calm     90% 0 in meteobridge W/m2
21:24 74.5 °F 71.6 °F 30.10 in Calm     91% 0 in meteobridge W/m2
21:29 74.3 °F 71.4 °F 30.10 in Calm     91% 0 in meteobridge W/m2
21:34 74.1 °F 71.2 °F 30.10 in Calm     91% 0 in meteobridge W/m2
21:39 74.1 °F 71.2 °F 30.11 in Calm     91% 0 in meteobridge W/m2
21:44 73.9 °F 71.1 °F 30.11 in Calm     91% 0 in meteobridge W/m2
21:49 73.9 °F 71.4 °F 30.11 in Calm     92% 0 in meteobridge W/m2
21:54 73.8 °F 71.2 °F 30.11 in Calm     92% 0 in meteobridge W/m2
21:59 73.8 °F 71.2 °F 30.11 in Calm     92% 0 in meteobridge W/m2
22:04 73.6 °F 71.1 °F 30.11 in Calm     92% 0 in meteobridge W/m2
22:09 73.6 °F 71.4 °F 30.11 in Calm     93% 0 in meteobridge W/m2
22:14 73.4 °F 71.2 °F 30.11 in Calm     93% 0 in meteobridge W/m2
22:19 73.4 °F 71.2 °F 30.11 in Calm     93% 0 in meteobridge W/m2
22:24 73.2 °F 71.1 °F 30.11 in Calm     93% 0 in meteobridge W/m2
22:29 73.2 °F 71.1 °F 30.11 in Calm     93% 0 in meteobridge W/m2
22:34 73.2 °F 71.1 °F 30.11 in Calm     93% 0 in meteobridge W/m2
22:39 73.2 °F 71.1 °F 30.11 in Calm     93% 0 in meteobridge W/m2
22:44 73.2 °F 71.1 °F 30.11 in Calm     93% 0 in meteobridge W/m2
22:49 73 °F 70.9 °F 30.11 in Calm     93% 0 in meteobridge W/m2
22:54 73 °F 70.9 °F 30.11 in Calm     93% 0 in meteobridge W/m2
22:59 73 °F 70.9 °F 30.11 in Calm     93% 0 in meteobridge W/m2
23:04 73 °F 70.9 °F 30.11 in Calm     93% 0 in meteobridge W/m2
23:09 73 °F 70.9 °F 30.11 in Calm     93% 0 in meteobridge W/m2
23:14 73 °F 70.9 °F 30.11 in Calm     93% 0 in meteobridge W/m2
23:19 73 °F 70.9 °F 30.11 in Calm     93% 0 in meteobridge W/m2
23:24 73 °F 71.2 °F 30.11 in Calm     94% 0 in meteobridge W/m2
23:29 73 °F 70.9 °F 30.13 in Calm   3 mph 93% 0 in meteobridge W/m2
23:34 72.9 °F 70.7 °F 30.12 in Calm   8 mph 93% 0 in meteobridge W/m2
23:39 72.7 °F 70.5 °F 30.12 in Calm   1 mph 93% 0 in meteobridge W/m2
23:44 72.7 °F 70.2 °F 30.13 in Calm   1 mph 92% 0.01 in meteobridge W/m2
23:49 72.3 °F 70.2 °F 30.13 in Calm     93% 0.03 in meteobridge W/m2
23:54 72.1 °F 70 °F 30.12 in Calm     93% 0.05 in meteobridge W/m2
23:59 72 °F 69.8 °F 30.12 in Calm     93% 0.1 in meteobridge W/m2
EllijayWeather
Compliments of Weather Underground - 2.5 mb